Time;durP1;ratioP1;P1;durP2;ratioP2;P2;SDS_P1;SDS_P2;PMS_P1;PMS_P2;Temp;Humidity;BMP_temperature;BMP_pressure;BME280_temperature;BME280_humidity;BME280_pressure;Samples;Min_cycle;Max_cycle;Signal;HPM_P1;HPM_P2
2022/05/27 00:02:06;;;;;;;22.02;6.30;;;;;;;14.06;77.02;101894.03;4936945;29;20468;-49
2022/05/27 00:04:31;;;;;;;19.52;6.63;;;;;;;14.07;76.86;101894.09;4936390;29;20039;-48
2022/05/27 00:06:56;;;;;;;23.98;6.43;;;;;;;14.07;76.98;101880.25;4937106;29;20031;-48
2022/05/27 00:09:23;;;;;;;22.95;6.47;;;;;;;14.06;77.05;101884.56;4936583;29;20043;-49
2022/05/27 00:11:49;;;;;;;22.02;6.28;;;;;;;14.04;77.20;101891.41;4936203;29;20032;-47
2022/05/27 00:14:14;;;;;;;19.10;6.07;;;;;;;14.04;77.25;101883.63;4936491;29;20047;-49
2022/05/27 00:16:39;;;;;;;21.88;6.75;;;;;;;14.05;77.27;101882.78;4936933;29;20391;-46
2022/05/27 00:19:05;;;;;;;21.65;6.70;;;;;;;14.03;77.24;101874.06;4935643;29;20121;-49
2022/05/27 00:21:30;;;;;;;18.70;5.70;;;;;;;14.03;77.23;101879.25;4936678;29;20030;-49
2022/05/27 00:23:55;;;;;;;26.83;6.88;;;;;;;14.03;77.49;101874.06;4936650;29;20155;-48
2022/05/27 00:26:21;;;;;;;21.65;6.68;;;;;;;14.02;77.46;101872.34;4935596;29;20476;-49
2022/05/27 00:28:46;;;;;;;28.20;6.82;;;;;;;14.03;77.80;101871.50;4936479;29;20052;-46
2022/05/27 00:31:11;;;;;;;18.42;6.32;;;;;;;14.01;77.60;101875.75;4936441;29;20024;-49
2022/05/27 00:33:38;;;;;;;16.95;7.18;;;;;;;14.00;78.06;101879.19;4935724;29;20023;-47
2022/05/27 00:36:10;;;;;;;18.47;6.87;;;;;;;13.98;78.06;101868.78;4936217;29;20475;-50
2022/05/27 00:38:37;;;;;;;22.38;7.07;;;;;;;13.96;78.29;101877.31;4936433;29;20289;-48
2022/05/27 00:41:02;;;;;;;14.40;6.13;;;;;;;13.96;78.42;101874.72;4935201;29;20115;-46
2022/05/27 00:43:28;;;;;;;35.67;7.40;;;;;;;13.94;79.00;101873.78;4936332;29;20102;-49
2022/05/27 00:46:01;;;;;;;28.05;7.88;;;;;;;13.91;79.42;101863.34;4935462;29;20423;-48
2022/05/27 00:48:27;;;;;;;26.77;8.07;;;;;;;13.90;79.37;101874.53;4936277;29;20032;-46
2022/05/27 00:50:55;;;;;;;25.92;6.72;;;;;;;13.88;79.47;101871.91;4936292;29;20030;-45
2022/05/27 00:53:38;;;;;;;30.65;8.40;;;;;;;13.89;79.47;101864.97;4935215;29;20039;-48
2022/05/27 00:56:05;;;;;;;30.73;8.23;;;;;;;13.87;80.03;101867.53;4935714;29;20488;-46
2022/05/27 00:58:36;;;;;;;28.48;7.38;;;;;;;13.85;80.56;101863.13;4936298;29;20118;-49
2022/05/27 01:01:01;;;;;;;23.10;8.57;;;;;;;13.79;81.06;101863.81;4935209;29;20023;-49
2022/05/27 01:03:29;;;;;;;30.27;9.07;;;;;;;13.77;81.41;101863.75;4935892;29;20074;-47
2022/05/27 01:05:54;;;;;;;28.17;8.90;;;;;;;13.76;81.38;101866.31;4935953;29;20036;-49
2022/05/27 01:08:24;;;;;;;32.13;8.93;;;;;;;13.75;81.50;101862.84;4934954;29;20031;-50
2022/05/27 01:11:00;;;;;;;24.60;8.77;;;;;;;13.76;82.08;101855.94;4936085;29;20107;-46
2022/05/27 01:13:42;;;;;;;34.70;10.23;;;;;;;13.72;82.68;101848.91;4935914;29;20031;-49
2022/05/27 01:16:21;;;;;;;31.08;9.70;;;;;;;13.63;83.53;101855.56;4934974;29;20031;-49
2022/05/27 01:22:31;;;;;;;29.13;10.00;;;;;;;13.49;85.08;101868.03;4935138;29;20047;-46
2022/05/27 01:25:32;;;;;;;31.23;10.65;;;;;;;13.41;86.97;101860.81;4926678;29;20046;-47
2022/05/27 01:28:28;;;;;;;29.48;10.55;;;;;;;13.34;88.09;101864.88;4935189;29;20032;-45
2022/05/27 01:31:00;;;;;;;35.85;11.82;;;;;;;13.25;90.34;101859.41;4935674;29;20399;-47
2022/05/27 01:33:44;;;;;;;31.25;12.00;;;;;;;13.17;91.15;101857.41;4935586;29;20034;-50
2022/05/27 01:36:32;;;;;;;35.85;12.68;;;;;;;13.11;91.91;101857.19;4934765;29;20082;-46
2022/05/27 01:39:11;;;;;;;33.33;13.27;;;;;;;13.03;92.97;101856.03;4935883;29;20077;-47
2022/05/27 01:41:47;;;;;;;39.72;14.27;;;;;;;12.96;93.60;101856.63;4935564;29;20067;-49
2022/05/27 01:44:29;;;;;;;43.55;14.38;;;;;;;12.93;94.85;101866.88;4934578;29;20446;-48
2022/05/27 01:46:54;;;;;;;45.90;14.25;;;;;;;12.89;95.92;101859.84;4937894;29;20055;-49
2022/05/27 01:49:43;;;;;;;46.42;15.13;;;;;;;12.85;95.99;101864.88;4938466;29;20081;-45
2022/05/27 01:52:31;;;;;;;43.03;15.32;;;;;;;12.80;96.39;101855.22;4939102;29;20035;-48
2022/05/27 01:55:10;;;;;;;49.63;16.92;;;;;;;12.76;97.95;101859.38;4939626;29;20039;-49
2022/05/27 01:57:43;;;;;;;43.22;15.32;;;;;;;12.72;98.43;101861.78;4938729;29;20032;-46
2022/05/27 02:00:12;;;;;;;53.60;17.88;;;;;;;12.67;99.30;101859.03;4939024;29;20031;-49
2022/05/27 02:02:47;;;;;;;47.33;16.80;;;;;;;12.67;99.26;101859.91;4939023;29;20032;-49
2022/05/27 02:05:22;;;;;;;47.83;16.08;;;;;;;12.64;99.83;101864.09;4938411;29;20024;-50
2022/05/27 02:07:57;;;;;;;57.15;16.92;;;;;;;12.62;100.00;101865.75;4939255;29;20027;-49
2022/05/27 02:10:38;;;;;;;59.08;18.15;;;;;;;12.58;100.00;101863.88;4938086;29;20044;-48
2022/05/27 02:13:10;;;;;;;50.45;16.23;;;;;;;12.57;100.00;101867.28;4938735;29;20059;-46
2022/05/27 02:15:41;;;;;;;51.85;17.98;;;;;;;12.56;100.00;101861.22;4939237;29;20031;-48
2022/05/27 02:18:19;;;;;;;51.28;17.80;;;;;;;12.52;100.00;101864.50;4937877;29;20039;-46
2022/05/27 02:20:51;;;;;;;58.42;18.50;;;;;;;12.49;100.00;101860.09;4938764;29;20042;-45
2022/05/27 02:23:50;;;;;;;56.65;19.50;;;;;;;12.48;100.00;101872.97;4938634;29;20031;-46
2022/05/27 02:26:19;;;;;;;54.97;19.25;;;;;;;12.50;100.00;101871.34;4934032;29;20043;-45
2022/05/27 02:28:52;;;;;;;55.90;18.95;;;;;;;12.51;100.00;101866.22;4938875;29;20024;-47
2022/05/27 02:31:23;;;;;;;54.85;18.85;;;;;;;12.51;100.00;101873.09;4937768;29;20083;-47
2022/05/27 02:36:47;;;;;;;49.33;19.63;;;;;;;12.55;100.00;101874.09;4938909;29;20034;-45
2022/05/27 02:39:12;;;;;;;63.55;21.35;;;;;;;12.55;100.00;101868.91;4937628;29;20044;-48
2022/05/27 02:41:46;;;;;;;51.15;19.77;;;;;;;12.55;100.00;101866.34;4938462;29;20381;-45
2022/05/27 02:44:24;;;;;;;58.25;19.25;;;;;;;12.55;100.00;101863.75;4938173;29;20031;-45
2022/05/27 02:47:18;;;;;;;41.22;15.55;;;;;;;12.52;100.00;101862.81;4937906;29;20488;-48
2022/05/27 02:49:46;;;;;;;27.60;13.80;;;;;;;12.45;100.00;101849.59;4936171;29;20040;-44
2022/05/27 02:52:24;;;;;;;34.92;15.52;;;;;;;12.45;100.00;101863.41;4938150;29;20467;-45
2022/05/27 02:55:04;;;;;;;38.42;16.05;;;;;;;12.43;100.00;101862.44;4938319;29;20043;-47
2022/05/27 02:57:43;;;;;;;39.63;15.88;;;;;;;12.43;100.00;101867.63;4938407;29;20039;-46
2022/05/27 03:00:18;;;;;;;36.70;14.43;;;;;;;12.41;100.00;101864.13;4936980;29;20042;-44
2022/05/27 03:02:44;;;;;;;35.40;14.57;;;;;;;12.41;100.00;101868.38;4938133;29;20027;-45
2022/05/27 03:05:13;;;;;;;35.67;13.85;;;;;;;12.38;100.00;101860.53;4938016;29;20510;-48
2022/05/27 03:08:04;;;;;;;31.48;13.98;;;;;;;12.39;100.00;101862.28;4937564;29;20036;-47
2022/05/27 03:10:43;;;;;;;31.80;13.70;;;;;;;12.36;100.00;101847.53;4938207;29;20112;-46
2022/05/27 03:13:26;;;;;;;28.17;12.30;;;;;;;12.32;100.00;101866.34;4937695;29;20460;-46
2022/05/27 03:16:00;;;;;;;30.25;12.63;;;;;;;12.31;100.00;101869.75;4938007;29;20123;-45
2022/05/27 03:18:47;;;;;;;33.83;13.25;;;;;;;12.30;100.00;101878.31;4937715;29;20052;-45
2022/05/27 03:21:34;;;;;;;28.75;12.80;;;;;;;12.30;100.00;101873.16;4936833;29;20035;-47
2022/05/27 03:24:18;;;;;;;30.08;11.45;;;;;;;12.29;100.00;101868.78;4937576;29;20031;-46
2022/05/27 03:27:10;;;;;;;33.42;13.20;;;;;;;12.28;100.00;101864.47;4937894;29;20023;-47
2022/05/27 03:30:31;;;;;;;21.42;10.10;;;;;;;12.27;100.00;101854.94;4936991;29;20039;-47
2022/05/27 03:33:15;;;;;;;24.08;10.60;;;;;;;12.26;100.00;101850.59;4920803;29;20059;-48
2022/05/27 03:36:04;;;;;;;22.92;11.00;;;;;;;12.24;100.00;101847.97;4936796;29;20035;-45
2022/05/27 03:38:39;;;;;;;23.58;11.25;;;;;;;12.23;100.00;101853.06;4937595;29;20028;-49
2022/05/27 03:41:10;;;;;;;20.85;10.00;;;;;;;12.20;100.00;101851.25;4937083;29;20441;-48
2022/05/27 03:43:37;;;;;;;23.85;10.90;;;;;;;12.21;100.00;101854.72;4936826;29;20034;-48
2022/05/27 03:46:03;;;;;;;26.25;10.40;;;;;;;12.16;100.00;101852.84;4937188;29;20032;-46
2022/05/27 03:48:31;;;;;;;24.17;10.45;;;;;;;12.15;100.00;101852.78;4937244;29;20505;-47
2022/05/27 03:50:58;;;;;;;;;;;;;;;12.17;100.00;101846.84;4936805;29;20456;-47
2022/05/27 03:54:03;;;;;;;29.38;10.70;;;;;;;12.07;100.00;101849.88;4937040;29;20326;-50
2022/05/27 03:56:09;;;;;;;20.52;9.57;;;;;;;12.07;100.00;101844.72;4936062;29;20044;-45
2022/05/27 03:58:35;;;;;;;28.90;11.00;;;;;;;12.05;100.00;101848.94;4937124;29;20020;-47
2022/05/27 04:01:00;;;;;;;30.42;10.80;;;;;;;12.04;100.00;101842.00;4936828;29;20486;-48
2022/05/27 04:03:25;;;;;;;26.33;10.32;;;;;;;12.04;100.00;101842.00;4936403;29;20071;-46
2022/05/27 04:05:51;;;;;;;25.40;10.38;;;;;;;12.03;100.00;101837.66;4936852;29;20432;-48
2022/05/27 04:08:16;;;;;;;29.92;11.75;;;;;;;12.05;100.00;101842.91;4936448;29;20035;-47
2022/05/27 04:10:42;;;;;;;23.65;10.73;;;;;;;12.08;100.00;101845.59;4935994;29;20023;-45
2022/05/27 04:13:07;;;;;;;26.73;11.20;;;;;;;12.08;100.00;101848.19;4936607;29;20020;-50
2022/05/27 04:15:32;;;;;;;25.10;11.60;;;;;;;12.12;100.00;101853.53;4936845;29;20032;-45
2022/05/27 04:17:57;;;;;;;26.83;11.25;;;;;;;12.15;100.00;101853.66;4935881;29;20551;-49
2022/05/27 04:20:23;;;;;;;26.77;11.23;;;;;;;12.15;100.00;101857.94;4936487;29;20027;-47
2022/05/27 04:22:54;;;;;;;39.05;13.48;;;;;;;12.19;100.00;101852.94;4936763;29;20372;-48
2022/05/27 04:25:20;;;;;;;29.80;12.98;;;;;;;12.21;100.00;101858.16;4935722;29;20035;-48
2022/05/27 04:27:45;;;;;;;34.90;13.68;;;;;;;12.26;100.00;101866.97;4936665;29;20024;-48
2022/05/27 04:30:12;;;;;;;38.35;14.90;;;;;;;12.27;100.00;101861.00;4936267;29;20086;-47
2022/05/27 04:32:37;;;;;;;35.58;14.18;;;;;;;12.32;100.00;101861.19;4935592;29;20380;-44
2022/05/27 04:35:03;;;;;;;39.22;16.58;;;;;;;12.35;100.00;101861.28;4936099;29;20030;-47
2022/05/27 04:37:28;;;;;;;38.05;17.33;;;;;;;12.38;100.00;101860.53;4936546;29;20023;-46
2022/05/27 04:39:54;;;;;;;35.88;17.60;;;;;;;12.39;100.00;101864.88;4935755;29;20381;-46
2022/05/27 04:42:19;;;;;;;44.08;18.08;;;;;;;12.42;100.00;101863.28;4936131;29;20037;-45
2022/05/27 04:44:45;;;;;;;53.15;19.30;;;;;;;12.48;100.00;101866.09;4936265;29;20102;-48
2022/05/27 04:47:11;;;;;;;54.95;19.55;;;;;;;12.56;100.00;101865.50;4935108;29;20039;-45
2022/05/27 04:49:56;;;;;;;42.72;19.70;;;;;;;12.59;100.00;101866.53;4936370;29;20031;-45
2022/05/27 04:52:26;;;;;;;60.28;21.58;;;;;;;12.69;100.00;101865.13;4935403;29;20066;-47
2022/05/27 04:54:52;;;;;;;57.42;21.23;;;;;;;12.74;100.00;101866.19;4936227;29;20059;-46
2022/05/27 04:57:21;;;;;;;56.53;20.50;;;;;;;12.80;100.00;101870.72;4935726;29;20032;-45
2022/05/27 04:59:49;;;;;;;54.30;20.63;;;;;;;12.85;100.00;101872.66;4935450;29;20035;-45
2022/05/27 05:02:15;;;;;;;55.22;21.83;;;;;;;12.90;100.00;101867.66;4935588;29;20389;-46
2022/05/27 05:04:40;;;;;;;51.45;20.67;;;;;;;12.93;100.00;101866.88;4936047;29;20460;-45
2022/05/27 05:07:08;;;;;;;53.35;21.08;;;;;;;12.98;100.00;101870.53;4935004;29;20381;-45
2022/05/27 05:09:38;;;;;;;52.30;20.55;;;;;;;13.04;100.00;101875.91;4935961;29;20034;-44
2022/05/27 05:12:04;;;;;;;50.05;21.60;;;;;;;13.13;100.00;101872.75;4935586;29;20066;-46
2022/05/27 05:14:30;;;;;;;60.65;21.13;;;;;;;13.17;100.00;101866.88;4935303;29;20439;-44
2022/05/27 05:16:55;;;;;;;59.92;21.08;;;;;;;13.22;100.00;101878.28;4935921;29;20451;-47
2022/05/27 05:19:20;;;;;;;54.60;19.35;;;;;;;13.29;100.00;101885.41;4935151;29;20044;-44
2022/05/27 05:21:46;;;;;;;52.65;19.05;;;;;;;13.33;100.00;101884.69;4934311;29;20038;-44
2022/05/27 05:24:11;;;;;;;51.95;19.10;;;;;;;13.42;100.00;101896.25;4935471;29;20115;-46
2022/05/27 05:26:37;;;;;;;48.38;18.95;;;;;;;13.54;100.00;101893.19;4935711;29;20031;-46
2022/05/27 05:29:02;;;;;;;43.25;14.30;;;;;;;13.55;100.00;101893.25;4934651;29;20030;-46
2022/05/27 05:31:28;;;;;;;55.10;15.90;;;;;;;13.63;100.00;101891.81;4935877;29;20043;-45
2022/05/27 05:33:58;;;;;;;38.90;14.20;;;;;;;13.65;100.00;101897.03;4935716;29;20020;-46
2022/05/27 05:36:23;;;;;;;49.80;14.68;;;;;;;13.73;100.00;101900.75;4934834;29;20478;-44
2022/05/27 05:38:49;;;;;;;57.38;14.38;;;;;;;13.78;100.00;101882.78;4935556;29;20102;-45
2022/05/27 05:41:26;;;;;;;42.10;14.25;;;;;;;13.81;100.00;101908.78;4934552;29;20542;-45
2022/05/27 05:43:52;;;;;;;36.15;12.55;;;;;;;13.78;99.01;101913.88;4935838;29;20122;-47
2022/05/27 05:46:18;;;;;;;43.70;11.23;;;;;;;13.78;98.52;101912.16;4935462;29;20486;-44
2022/05/27 05:48:43;;;;;;;41.28;12.75;;;;;;;13.75;100.00;101912.06;4934875;29;20424;-45
2022/05/27 05:51:08;;;;;;;45.28;11.65;;;;;;;13.75;99.89;101921.53;4935222;29;20023;-49
2022/05/27 05:53:33;;;;;;;47.92;14.10;;;;;;;13.77;99.77;101922.47;4935491;29;20039;-47
2022/05/27 05:55:59;;;;;;;42.85;11.63;;;;;;;13.78;99.43;101914.75;4934527;29;20078;-44
2022/05/27 05:58:24;;;;;;;36.97;11.23;;;;;;;13.84;98.91;101914.09;4935358;29;20049;-45
2022/05/27 06:00:50;;;;;;;43.17;11.52;;;;;;;13.81;96.25;101916.56;4935485;29;20036;-48
2022/05/27 06:03:15;;;;;;;37.95;10.77;;;;;;;13.82;98.48;101921.78;4934497;29;20438;-46
2022/05/27 06:05:42;;;;;;;41.70;10.70;;;;;;;13.77;96.28;101925.06;4935341;29;20027;-47
2022/05/27 06:08:08;;;;;;;28.38;8.52;;;;;;;13.66;93.25;101924.72;4935119;29;20056;-45
2022/05/27 06:10:33;;;;;;;28.95;9.23;;;;;;;13.62;95.63;101928.00;4934479;29;20040;-49
2022/05/27 06:12:58;;;;;;;42.30;9.20;;;;;;;13.61;96.28;101921.97;4935181;29;20028;-46
2022/05/27 06:15:24;;;;;;;29.02;8.00;;;;;;;13.60;93.84;101920.19;4935190;29;20031;-44
2022/05/27 06:17:49;;;;;;;34.60;6.93;;;;;;;13.58;91.43;101920.97;4934414;29;20028;-48
2022/05/27 06:20:15;;;;;;;20.10;5.78;;;;;;;13.54;88.21;101919.09;4934810;29;20503;-46
2022/05/27 06:22:41;;;;;;;27.80;6.35;;;;;;;13.55;90.80;101933.81;4935209;29;20063;-47
2022/05/27 06:25:07;;;;;;;22.90;7.00;;;;;;;13.57;91.06;101929.56;4934089;29;20027;-46
2022/05/27 06:27:32;;;;;;;25.98;7.70;;;;;;;13.59;92.08;101927.91;4935089;29;20384;-48
2022/05/27 06:35:26;;;;;;;30.17;7.35;;;;;;;13.55;90.98;101941.59;4938736;29;20083;-46
2022/05/27 06:37:51;;;;;;;27.40;6.53;;;;;;;13.48;86.73;101946.53;4938019;29;20087;-46
2022/05/27 06:40:18;;;;;;;24.20;6.20;;;;;;;13.44;88.59;101942.09;4938282;29;20031;-46
2022/05/27 06:42:43;;;;;;;24.50;5.45;;;;;;;13.47;88.68;101939.59;4938662;29;20036;-46
2022/05/27 06:45:10;;;;;;;31.40;5.97;;;;;;;13.51;90.24;101940.59;4937515;29;20024;-47
2022/05/27 06:47:37;;;;;;;22.13;5.30;;;;;;;13.53;84.48;101938.94;4938405;29;20038;-47
2022/05/27 06:50:02;;;;;;;21.52;5.07;;;;;;;13.53;84.35;101938.06;4938111;29;20024;-45
2022/05/27 06:52:28;;;;;;;18.65;4.70;;;;;;;13.55;83.19;101933.81;4937768;29;20035;-47
2022/05/27 06:54:53;;;;;;;25.50;5.40;;;;;;;13.59;85.24;101943.44;4938303;29;20031;-46
2022/05/27 06:57:19;;;;;;;23.02;5.25;;;;;;;13.64;85.33;101941.91;4938109;29;20024;-46
2022/05/27 06:59:44;;;;;;;30.02;5.47;;;;;;;13.71;85.35;101940.41;4937511;29;20037;-47
2022/05/27 07:02:09;;;;;;;24.67;5.10;;;;;;;13.76;85.04;101942.34;4937924;29;20036;-45
2022/05/27 07:04:35;;;;;;;22.60;5.75;;;;;;;13.88;86.67;101948.75;4938039;29;20035;-47
2022/05/27 07:07:04;;;;;;;23.02;5.45;;;;;;;14.05;87.32;101949.31;4937415;29;20491;-48
2022/05/27 07:09:31;;;;;;;19.42;5.38;;;;;;;14.23;87.04;101943.81;4938130;29;20031;-48
2022/05/27 07:11:57;;;;;;;;;;;;;;;14.35;86.16;101946.81;4938433;29;20035;-47
2022/05/27 07:14:22;;;;;;;26.93;5.47;;;;;;;14.43;82.11;101947.94;4937054;29;20282;-46
2022/05/27 07:16:48;;;;;;;17.77;5.68;;;;;;;14.60;80.41;101940.69;4937815;29;20282;-48
2022/05/27 07:19:14;;;;;;;32.53;5.95;;;;;;;14.69;81.62;101950.47;4937515;29;20054;-45
2022/05/27 07:21:41;;;;;;;21.83;5.75;;;;;;;14.69;78.90;101950.47;4937186;29;20028;-47
2022/05/27 07:24:09;;;;;;;21.17;5.72;;;;;;;14.70;79.83;101947.06;4937582;29;20028;-49
2022/05/27 07:26:36;;;;;;;22.67;5.80;;;;;;;14.70;81.11;101948.78;4937825;29;20054;-48
2022/05/27 07:29:02;;;;;;;24.35;5.75;;;;;;;14.80;80.59;101954.28;4937125;29;20110;-45
2022/05/27 07:31:29;;;;;;;21.60;5.47;;;;;;;14.95;79.58;101943.50;4937623;29;20431;-45
2022/05/27 07:33:54;;;;;;;19.77;5.28;;;;;;;15.08;77.95;101957.72;4936820;29;20387;-45
2022/05/27 07:36:19;;;;;;;24.27;5.07;;;;;;;15.09;76.36;101951.69;4937233;29;20114;-47
2022/05/27 07:38:45;;;;;;;22.38;5.47;;;;;;;15.10;77.66;101952.56;4937565;29;20176;-48
2022/05/27 07:41:11;;;;;;;26.38;5.32;;;;;;;15.30;78.53;101953.13;4936516;29;20039;-47
2022/05/27 07:43:37;;;;;;;19.13;5.70;;;;;;;15.46;78.57;101955.28;4936590;29;20388;-48
2022/05/27 07:46:02;;;;;;;16.90;4.75;;;;;;;15.59;74.85;101951.31;4937033;29;20016;-49
2022/05/27 07:48:28;;;;;;;26.58;5.30;;;;;;;15.82;78.00;101958.00;4936491;29;20454;-48
2022/05/27 07:50:53;;;;;;;22.60;5.43;;;;;;;15.79;75.67;101950.97;4937690;29;20059;-49
2022/05/27 07:53:19;;;;;;;17.10;5.22;;;;;;;15.76;74.93;101959.56;4937254;29;20071;-49
2022/05/27 07:55:45;;;;;;;19.30;5.03;;;;;;;15.64;75.07;101967.03;4936526;29;20028;-48
2022/05/27 07:58:10;;;;;;;18.40;4.95;;;;;;;15.63;75.01;101962.66;4936936;29;20034;-47
2022/05/27 08:00:37;;;;;;;15.98;4.32;;;;;;;15.66;73.34;101970.56;4937082;29;20055;-49
2022/05/27 08:03:03;;;;;;;20.10;4.70;;;;;;;15.61;71.32;101964.34;4935933;29;20020;-47
2022/05/27 08:05:31;;;;;;;19.83;4.97;;;;;;;15.57;73.88;101965.09;4937025;29;20039;-45
2022/05/27 08:07:58;;;;;;;23.67;5.10;;;;;;;15.60;74.87;101962.59;4937020;29;20028;-46
2022/05/27 08:10:36;;;;;;;15.63;4.80;;;;;;;15.64;69.39;101967.03;4936120;29;20368;-48
2022/05/27 08:13:03;;;;;;;23.05;5.90;;;;;;;15.60;68.29;101960.00;4936618;29;20391;-48
2022/05/27 08:15:29;;;;;;;25.42;5.45;;;;;;;15.56;73.01;101969.41;4936658;29;20486;-46
2022/05/27 08:17:54;;;;;;;26.08;5.57;;;;;;;15.37;71.79;101973.22;4935988;29;20534;-46
2022/05/27 08:20:23;;;;;;;18.27;5.13;;;;;;;15.35;72.20;101974.91;4936176;29;20091;-49
2022/05/27 08:22:50;;;;;;;23.00;5.43;;;;;;;15.30;71.11;101986.91;4936804;29;20028;-49
2022/05/27 08:25:17;;;;;;;18.73;5.78;;;;;;;15.25;68.22;101986.75;4935720;29;20023;-49
2022/05/27 08:27:42;;;;;;;21.65;5.95;;;;;;;15.26;70.75;101985.03;4936594;29;20123;-49
2022/05/27 08:30:11;;;;;;;21.50;5.70;;;;;;;15.45;70.80;101984.72;4935813;29;20061;-49
2022/05/27 08:32:37;;;;;;;20.02;5.20;;;;;;;15.87;72.89;101979.75;4936368;29;20468;-49
2022/05/27 08:38:01;;;;;;;27.15;6.13;;;;;;;15.94;66.65;101986.88;4936136;29;20554;-49
2022/05/27 08:40:50;;;;;;;23.10;5.15;;;;;;;15.74;66.87;101989.81;4936227;29;20460;-50
2022/05/27 08:43:33;;;;;;;23.02;5.72;;;;;;;15.56;66.60;101998.00;4936331;29;20045;-48
2022/05/27 08:46:12;;;;;;;29.55;5.82;;;;;;;15.42;67.25;102004.53;4935636;29;20042;-46
2022/05/27 08:48:41;;;;;;;25.65;6.25;;;;;;;15.35;67.35;101995.69;4936167;29;20092;-47
2022/05/27 08:51:18;;;;;;;24.73;5.22;;;;;;;15.40;67.75;102001.91;4935083;29;20464;-48
2022/05/27 08:53:54;;;;;;;22.02;5.35;;;;;;;15.55;67.41;101995.38;4936307;29;20043;-49
2022/05/27 08:59:28;;;;;;;28.42;6.68;;;;;;;15.82;68.13;101997.84;4935436;29;20183;-48
2022/05/27 09:02:15;;;;;;;25.15;6.95;;;;;;;16.08;68.96;102000.25;4936090;29;20063;-48
2022/05/27 09:04:42;;;;;;;27.30;6.05;;;;;;;16.39;64.18;101999.28;4936157;29;20034;-48
2022/05/27 09:07:23;;;;;;;19.90;5.30;;;;;;;16.69;64.45;101995.63;4935006;29;20219;-48
2022/05/27 09:09:49;;;;;;;26.77;5.85;;;;;;;17.04;63.55;101997.28;4935865;29;20388;-48
2022/05/27 09:12:39;;;;;;;26.55;5.35;;;;;;;16.91;62.97;102006.56;4935072;29;20055;-47
2022/05/27 09:15:34;;;;;;;31.05;5.30;;;;;;;16.40;60.98;102006.25;4935692;29;20028;-49
2022/05/27 09:18:05;;;;;;;31.30;5.78;;;;;;;16.33;65.04;102004.31;4935669;29;20039;-48
2022/05/27 09:20:56;;;;;;;31.50;6.40;;;;;;;16.61;60.33;102002.38;4934797;29;20058;-47
2022/05/27 09:23:55;;;;;;;21.48;5.30;;;;;;;16.82;60.17;102006.31;4935350;29;20032;-46
2022/05/27 09:26:27;;;;;;;28.17;5.93;;;;;;;16.85;59.80;102014.19;4934603;29;20046;-49
2022/05/27 09:29:03;;;;;;;21.13;5.50;;;;;;;16.70;58.92;102015.59;4935733;29;20376;-47
2022/05/27 09:31:44;;;;;;;23.67;5.35;;;;;;;16.66;61.94;102024.19;4935977;29;20464;-49
2022/05/27 09:34:11;;;;;;;20.50;5.18;;;;;;;16.73;58.12;102027.81;4934700;29;20472;-48
2022/05/27 09:36:42;;;;;;;22.45;5.20;;;;;;;16.74;57.25;102029.59;4935627;29;20030;-49
2022/05/27 09:39:10;;;;;;;20.48;5.30;;;;;;;16.97;57.60;102027.53;4935341;29;20472;-49
2022/05/27 09:42:00;;;;;;;30.58;5.30;;;;;;;17.21;57.41;102036.72;4934736;29;20472;-48
2022/05/27 09:44:41;;;;;;;24.08;5.30;;;;;;;17.33;58.91;102047.41;4935476;29;20380;-47
2022/05/27 09:47:06;;;;;;;26.00;5.00;;;;;;;17.14;56.75;102045.25;4935174;29;20388;-48
2022/05/27 09:49:32;;;;;;;26.55;5.20;;;;;;;17.23;56.59;102035.03;4934683;29;20472;-48
2022/05/27 09:51:59;;;;;;;29.25;5.90;;;;;;;17.58;56.25;102037.47;4935591;29;20506;-47
2022/05/27 09:54:45;;;;;;;26.92;5.43;;;;;;;18.01;56.95;102043.53;4934538;29;20375;-49
2022/05/27 09:57:10;;;;;;;18.67;5.15;;;;;;;17.76;55.59;102036.94;4935054;29;20059;-48
2022/05/27 09:59:40;;;;;;;26.60;5.53;;;;;;;17.55;54.51;102047.84;4935411;29;20115;-49
2022/05/27 10:02:21;;;;;;;40.67;6.45;;;;;;;17.43;55.97;102054.56;4934464;29;20498;-48
2022/05/27 10:04:50;;;;;;;27.42;5.28;;;;;;;17.51;51.38;102051.25;4935332;29;20443;-48
2022/05/27 10:07:31;;;;;;;36.10;4.72;;;;;;;17.65;52.99;102034.16;4936278;29;20024;-48
2022/05/27 10:10:15;;;;;;;17.95;4.63;;;;;;;18.05;49.96;102037.53;4938341;28;20440;-49
2022/05/27 10:12:40;;;;;;;21.02;4.38;;;;;;;18.30;48.29;102040.53;4939183;29;20039;-48
2022/05/27 10:15:06;;;;;;;18.35;4.93;;;;;;;18.78;43.56;102048.25;4938867;29;20024;-47
2022/05/27 10:17:36;;;;;;;23.05;4.55;;;;;;;19.41;43.88;102039.53;4938384;29;20031;-50
2022/05/27 10:20:17;;;;;;;21.02;4.57;;;;;;;20.00;43.75;102034.97;4938414;29;20480;-49
2022/05/27 10:22:42;;;;;;;22.13;5.28;;;;;;;21.00;43.61;102033.97;4938310;29;20054;-49
2022/05/27 10:25:13;;;;;;;27.38;5.18;;;;;;;21.45;43.59;102037.66;4938752;29;20051;-49
2022/05/27 10:27:44;;;;;;;21.50;4.55;;;;;;;21.82;40.90;102043.03;4938819;29;20461;-47
2022/05/27 10:30:19;;;;;;;21.65;4.75;;;;;;;21.98;38.82;102046.53;4937901;29;20086;-48
2022/05/27 10:32:45;;;;;;;24.70;5.40;;;;;;;22.35;36.42;102038.69;4938731;29;20115;-49
2022/05/27 10:35:25;;;;;;;25.38;4.70;;;;;;;22.85;38.35;102043.88;4938300;29;20130;-48
2022/05/27 10:38:10;;;;;;;17.88;4.50;;;;;;;23.40;37.05;102037.59;4938110;29;20190;-49
2022/05/27 10:40:42;;;;;;;18.40;5.07;;;;;;;23.01;36.05;102040.34;4938470;29;20387;-49
2022/05/27 10:43:29;;;;;;;30.17;5.22;;;;;;;22.79;36.93;102047.41;4938272;29;20027;-47
2022/05/27 10:45:56;;;;;;;25.40;5.70;;;;;;;21.59;38.28;102053.47;4938026;29;20048;-49
2022/05/27 10:48:39;;;;;;;20.38;4.93;;;;;;;21.55;37.55;102054.34;4938252;29;20110;-48
2022/05/27 10:51:16;;;;;;;11.82;4.18;;;;;;;21.88;37.16;102044.78;4937465;29;20028;-48
2022/05/27 10:53:44;;;;;;;27.93;5.00;;;;;;;22.00;36.31;102042.19;4938384;29;20039;-50
2022/05/27 10:56:30;;;;;;;34.67;4.90;;;;;;;23.04;37.28;102044.72;4938261;29;20347;-47
2022/05/27 11:02:27;;;;;;;20.85;4.50;;;;;;;24.26;35.44;102045.81;4938246;29;20396;-50
2022/05/27 11:05:04;;;;;;;21.33;4.30;;;;;;;24.31;33.99;102057.19;4937633;29;20038;-47
2022/05/27 11:07:43;;;;;;;18.98;4.40;;;;;;;25.09;32.67;102049.41;4938390;29;20506;-49
2022/05/27 11:10:41;;;;;;;23.30;4.30;;;;;;;25.14;30.22;102059.00;4937858;29;20086;-50
2022/05/27 11:16:30;;;;;;;23.15;4.18;;;;;;;24.12;30.58;102061.75;4937791;29;20144;-45
2022/05/27 11:19:08;;;;;;;17.20;3.65;;;;;;;24.08;32.49;102052.09;4935648;29;20051;-49
2022/05/27 11:21:51;;;;;;;18.42;4.97;;;;;;;24.17;33.43;102057.31;4937645;29;20555;-50
2022/05/27 11:24:45;;;;;;;18.23;4.30;;;;;;;23.65;34.48;102054.13;4937588;29;20020;-45
2022/05/27 11:27:35;;;;;;;25.35;4.40;;;;;;;21.89;35.10;102062.28;4936737;29;20020;-46
2022/05/27 11:30:23;;;;;;;23.05;4.65;;;;;;;20.80;38.62;102062.66;4937504;29;20099;-45
2022/05/27 11:33:06;;;;;;;25.30;4.97;;;;;;;21.35;38.22;102075.19;4937070;29;20059;-45
2022/05/27 11:35:43;;;;;;;22.48;4.45;;;;;;;22.18;37.23;102051.81;4937608;29;20059;-49
2022/05/27 11:38:20;;;;;;;20.00;4.45;;;;;;;21.74;36.91;102070.13;4937435;29;20034;-46
2022/05/27 11:41:13;;;;;;;18.20;4.30;;;;;;;22.51;35.84;102064.97;4936917;29;20028;-49
2022/05/27 11:43:47;;;;;;;20.13;4.55;;;;;;;22.94;33.99;102070.16;4937443;29;20031;-46
2022/05/27 11:46:28;;;;;;;20.00;4.40;;;;;;;23.47;34.52;102052.47;4937365;29;20034;-50
2022/05/27 11:49:08;;;;;;;19.27;4.65;;;;;;;24.00;33.68;102068.84;4936770;29;20020;-48
2022/05/27 11:51:55;;;;;;;15.48;3.78;;;;;;;24.23;30.27;102073.06;4937363;29;20087;-47
2022/05/27 11:54:34;;;;;;;24.67;4.35;;;;;;;23.94;31.15;102082.06;4936233;29;20038;-46
2022/05/27 11:57:15;;;;;;;15.13;3.80;;;;;;;24.52;33.15;102077.22;4937286;29;20042;-45
2022/05/27 11:59:49;;;;;;;17.52;3.97;;;;;;;24.71;31.40;102069.16;4937199;29;20519;-49